sensor_id;sensor_type;location;lat;lon;timestamp;pressure;altitude;pressure_sealevel;temperature;humidity
78309;BME280;67566;42.022;21.356;2023-02-21T00:01:50;99241.69;;;2.75;57.86
78309;BME280;67566;42.022;21.356;2023-02-21T00:04:34;99246.06;;;2.70;58.93
78309;BME280;67566;42.022;21.356;2023-02-21T00:07:18;99238.28;;;2.63;58.63
78309;BME280;67566;42.022;21.356;2023-02-21T00:10:03;99238.41;;;2.56;59.31
78309;BME280;67566;42.022;21.356;2023-02-21T00:12:47;99236.72;;;2.50;59.18
78309;BME280;67566;42.022;21.356;2023-02-21T00:15:31;99229.06;;;2.49;59.03
78309;BME280;67566;42.022;21.356;2023-02-21T00:18:15;99226.91;;;2.45;59.88
78309;BME280;67566;42.022;21.356;2023-02-21T00:20:59;99230.78;;;2.43;59.47
78309;BME280;67566;42.022;21.356;2023-02-21T00:23:43;99220.75;;;2.40;59.48
78309;BME280;67566;42.022;21.356;2023-02-21T00:26:27;99212.28;;;2.38;59.15
78309;BME280;67566;42.022;21.356;2023-02-21T00:29:11;99218.22;;;2.33;59.77
78309;BME280;67566;42.022;21.356;2023-02-21T00:31:55;99208.19;;;2.30;58.91
78309;BME280;67566;42.022;21.356;2023-02-21T00:34:39;99211.03;;;2.29;59.53
78309;BME280;67566;42.022;21.356;2023-02-21T00:37:22;99212.31;;;2.26;59.50
78309;BME280;67566;42.022;21.356;2023-02-21T00:40:07;99209.91;;;2.24;60.09
78309;BME280;67566;42.022;21.356;2023-02-21T00:42:51;99214.59;;;2.22;59.25
78309;BME280;67566;42.022;21.356;2023-02-21T00:45:35;99215.84;;;2.20;59.88
78309;BME280;67566;42.022;21.356;2023-02-21T00:48:20;99207.41;;;2.18;59.54
78309;BME280;67566;42.022;21.356;2023-02-21T00:51:04;99211.84;;;2.17;59.82
78309;BME280;67566;42.022;21.356;2023-02-21T00:53:48;99206.25;;;2.14;60.19
78309;BME280;67566;42.022;21.356;2023-02-21T00:56:32;99214.59;;;2.11;60.22
78309;BME280;67566;42.022;21.356;2023-02-21T00:59:16;99212.09;;;2.04;60.26
78309;BME280;67566;42.022;21.356;2023-02-21T01:02:00;99213.00;;;1.98;60.79
78309;BME280;67566;42.022;21.356;2023-02-21T01:04:43;99212.06;;;1.92;61.05
78309;BME280;67566;42.022;21.356;2023-02-21T01:07:27;99202.50;;;1.86;61.06
78309;BME280;67566;42.022;21.356;2023-02-21T01:10:11;99198.97;;;1.80;60.38
78309;BME280;67566;42.022;21.356;2023-02-21T01:12:55;99199.41;;;1.77;60.55
78309;BME280;67566;42.022;21.356;2023-02-21T01:15:39;99193.59;;;1.75;60.67
78309;BME280;67566;42.022;21.356;2023-02-21T01:18:23;99198.63;;;1.77;61.38
78309;BME280;67566;42.022;21.356;2023-02-21T01:21:12;99193.03;;;1.73;61.44
78309;BME280;67566;42.022;21.356;2023-02-21T01:23:56;99178.50;;;1.70;61.26
78309;BME280;67566;42.022;21.356;2023-02-21T01:26:40;99191.63;;;1.70;61.23
78309;BME280;67566;42.022;21.356;2023-02-21T01:29:24;99187.66;;;1.68;61.72
78309;BME280;67566;42.022;21.356;2023-02-21T01:32:08;99177.38;;;1.66;61.28
78309;BME280;67566;42.022;21.356;2023-02-21T01:34:51;99177.38;;;1.66;61.54
78309;BME280;67566;42.022;21.356;2023-02-21T01:37:35;99164.25;;;1.66;61.59
78309;BME280;67566;42.022;21.356;2023-02-21T01:40:19;99166.06;;;1.66;61.65
78309;BME280;67566;42.022;21.356;2023-02-21T01:43:13;99167.91;;;1.65;61.52
78309;BME280;67566;42.022;21.356;2023-02-21T01:45:58;99164.72;;;1.63;61.46
78309;BME280;67566;42.022;21.356;2023-02-21T01:48:42;99170.41;;;1.60;61.68
78309;BME280;67566;42.022;21.356;2023-02-21T01:51:33;99166.44;;;1.58;61.31
78309;BME280;67566;42.022;21.356;2023-02-21T01:54:20;99166.06;;;1.54;61.61
78309;BME280;67566;42.022;21.356;2023-02-21T01:57:05;99155.25;;;1.50;62.39
78309;BME280;67566;42.022;21.356;2023-02-21T01:59:51;99160.38;;;1.45;61.76
78309;BME280;67566;42.022;21.356;2023-02-21T02:05:58;99160.00;;;1.30;62.23
78309;BME280;67566;42.022;21.356;2023-02-21T02:08:43;99162.50;;;1.25;62.11
78309;BME280;67566;42.022;21.356;2023-02-21T02:31:33;99162.88;;;0.98;62.76
78309;BME280;67566;42.022;21.356;2023-02-21T02:34:39;99161.50;;;0.96;63.66
78309;BME280;67566;42.022;21.356;2023-02-21T02:37:30;99160.13;;;0.93;63.22
78309;BME280;67566;42.022;21.356;2023-02-21T02:40:26;99160.13;;;0.93;63.05
78309;BME280;67566;42.022;21.356;2023-02-21T02:45:52;99149.28;;;0.89;63.84
78309;BME280;67566;42.022;21.356;2023-02-21T02:48:27;99149.94;;;0.85;63.40
78309;BME280;67566;42.022;21.356;2023-02-21T02:50:56;99153.84;;;0.82;63.21
78309;BME280;67566;42.022;21.356;2023-02-21T02:53:27;99155.28;;;0.78;63.43
78309;BME280;67566;42.022;21.356;2023-02-21T02:55:58;99146.84;;;0.76;64.14
78309;BME280;67566;42.022;21.356;2023-02-21T02:58:27;99144.88;;;0.71;63.19
78309;BME280;67566;42.022;21.356;2023-02-21T03:06:08;99139.97;;;0.63;63.39
78309;BME280;67566;42.022;21.356;2023-02-21T03:11:20;99137.22;;;0.58;63.81
78309;BME280;67566;42.022;21.356;2023-02-21T03:14:10;99116.69;;;0.55;63.99
78309;BME280;67566;42.022;21.356;2023-02-21T03:16:50;99118.16;;;0.51;64.21
78309;BME280;67566;42.022;21.356;2023-02-21T03:19:27;99115.19;;;0.47;63.89
78309;BME280;67566;42.022;21.356;2023-02-21T03:21:59;99118.25;;;0.44;64.57
78309;BME280;67566;42.022;21.356;2023-02-21T03:24:26;99121.88;;;0.43;64.50
78309;BME280;67566;42.022;21.356;2023-02-21T03:26:56;99122.91;;;0.42;64.35
78309;BME280;67566;42.022;21.356;2023-02-21T03:29:24;99126.09;;;0.44;64.17
78309;BME280;67566;42.022;21.356;2023-02-21T03:31:55;99124.28;;;0.45;64.77
78309;BME280;67566;42.022;21.356;2023-02-21T03:34:23;99124.28;;;0.45;64.78
78309;BME280;67566;42.022;21.356;2023-02-21T03:36:49;99124.28;;;0.45;64.73
78309;BME280;67566;42.022;21.356;2023-02-21T03:39:14;99115.03;;;0.42;64.64
78309;BME280;67566;42.022;21.356;2023-02-21T03:41:40;99123.69;;;0.43;64.60
78309;BME280;67566;42.022;21.356;2023-02-21T03:44:05;99122.31;;;0.40;64.41
78309;BME280;67566;42.022;21.356;2023-02-21T03:46:31;99124.34;;;0.38;65.71
78309;BME280;67566;42.022;21.356;2023-02-21T03:48:56;99124.00;;;0.34;66.11
78309;BME280;67566;42.022;21.356;2023-02-21T03:51:22;99118.38;;;0.31;65.92
78309;BME280;67566;42.022;21.356;2023-02-21T03:53:47;99122.69;;;0.25;66.42
78309;BME280;67566;42.022;21.356;2023-02-21T03:56:13;99119.94;;;0.20;65.89
78309;BME280;67566;42.022;21.356;2023-02-21T03:58:38;99114.34;;;0.16;66.44
78309;BME280;67566;42.022;21.356;2023-02-21T04:01:04;99104.28;;;0.13;65.72
78309;BME280;67566;42.022;21.356;2023-02-21T04:03:29;99109.75;;;0.12;66.04
78309;BME280;67566;42.022;21.356;2023-02-21T04:05:55;99117.03;;;0.10;65.87
78309;BME280;67566;42.022;21.356;2023-02-21T04:08:20;99111.00;;;0.09;65.78
78309;BME280;67566;42.022;21.356;2023-02-21T04:10:46;99111.44;;;0.06;65.67
78309;BME280;67566;42.022;21.356;2023-02-21T04:13:11;99111.28;;;0.01;65.54
78309;BME280;67566;42.022;21.356;2023-02-21T04:15:37;99110.72;;;-0.01;65.41
78309;BME280;67566;42.022;21.356;2023-02-21T04:18:02;99118.69;;;-0.14;66.11
78309;BME280;67566;42.022;21.356;2023-02-21T04:20:28;99121.16;;;-0.20;66.51
78309;BME280;67566;42.022;21.356;2023-02-21T04:22:53;99125.03;;;-0.22;65.96
78309;BME280;67566;42.022;21.356;2023-02-21T04:25:18;99119.00;;;-0.23;65.54
78309;BME280;67566;42.022;21.356;2023-02-21T04:27:44;99123.63;;;-0.25;66.28
78309;BME280;67566;42.022;21.356;2023-02-21T04:30:10;99117.22;;;-0.29;66.35
78309;BME280;67566;42.022;21.356;2023-02-21T04:32:35;99119.06;;;-0.29;66.61
78309;BME280;67566;42.022;21.356;2023-02-21T04:35:01;99127.91;;;-0.30;66.87
78309;BME280;67566;42.022;21.356;2023-02-21T04:37:26;99130.75;;;-0.32;66.90
78309;BME280;67566;42.022;21.356;2023-02-21T04:39:52;99129.72;;;-0.31;67.15
78309;BME280;67566;42.022;21.356;2023-02-21T04:42:17;99130.75;;;-0.32;66.97
78309;BME280;67566;42.022;21.356;2023-02-21T04:44:43;99137.78;;;-0.32;67.16
78309;BME280;67566;42.022;21.356;2023-02-21T04:47:08;99134.38;;;-0.33;67.16
78309;BME280;67566;42.022;21.356;2023-02-21T04:49:34;99130.94;;;-0.33;67.61
78309;BME280;67566;42.022;21.356;2023-02-21T04:51:59;99131.97;;;-0.34;67.10
78309;BME280;67566;42.022;21.356;2023-02-21T04:54:25;99138.00;;;-0.34;67.59
78309;BME280;67566;42.022;21.356;2023-02-21T04:56:50;99134.59;;;-0.34;67.18
78309;BME280;67566;42.022;21.356;2023-02-21T04:59:16;99138.78;;;-0.33;67.60
78309;BME280;67566;42.022;21.356;2023-02-21T05:01:41;99140.41;;;-0.32;67.73
78309;BME280;67566;42.022;21.356;2023-02-21T05:04:06;99134.97;;;-0.31;67.40
78309;BME280;67566;42.022;21.356;2023-02-21T05:06:32;99136.56;;;-0.30;67.52
78309;BME280;67566;42.022;21.356;2023-02-21T05:08:59;99132.94;;;-0.29;67.49
78309;BME280;67566;42.022;21.356;2023-02-21T05:11:25;99132.94;;;-0.29;67.81
78309;BME280;67566;42.022;21.356;2023-02-21T05:13:50;99139.97;;;-0.29;68.43
78309;BME280;67566;42.022;21.356;2023-02-21T05:16:17;99146.81;;;-0.28;67.90
78309;BME280;67566;42.022;21.356;2023-02-21T05:18:43;99139.97;;;-0.29;67.82
78309;BME280;67566;42.022;21.356;2023-02-21T05:21:09;99143.97;;;-0.27;67.83
78309;BME280;67566;42.022;21.356;2023-02-21T05:23:35;99151.63;;;-0.25;68.44
78309;BME280;67566;42.022;21.356;2023-02-21T05:26:11;99154.00;;;-0.24;68.87
78309;BME280;67566;42.022;21.356;2023-02-21T05:28:37;99154.00;;;-0.24;67.58
78309;BME280;67566;42.022;21.356;2023-02-21T05:31:03;99151.75;;;-0.20;67.68
78309;BME280;67566;42.022;21.356;2023-02-21T05:33:29;99158.41;;;-0.17;67.50
78309;BME280;67566;42.022;21.356;2023-02-21T05:35:55;99150.47;;;-0.11;67.63
78309;BME280;67566;42.022;21.356;2023-02-21T05:38:22;99148.56;;;-0.04;67.14
78309;BME280;67566;42.022;21.356;2023-02-21T05:40:47;99153.84;;;0.15;67.44
78309;BME280;67566;42.022;21.356;2023-02-21T05:43:13;99161.72;;;0.45;66.33
78309;BME280;67566;42.022;21.356;2023-02-21T05:45:40;99158.34;;;0.75;66.40
78309;BME280;67566;42.022;21.356;2023-02-21T05:48:05;99160.75;;;1.07;66.20
78309;BME280;67566;42.022;21.356;2023-02-21T05:50:31;99166.06;;;1.42;65.77
78309;BME280;67566;42.022;21.356;2023-02-21T05:52:57;99164.94;;;1.74;65.64
78309;BME280;67566;42.022;21.356;2023-02-21T05:55:23;99149.03;;;2.16;64.59
78309;BME280;67566;42.022;21.356;2023-02-21T05:57:49;99146.31;;;2.51;64.04
78309;BME280;67566;42.022;21.356;2023-02-21T06:00:20;99150.59;;;2.98;62.26
78309;BME280;67566;42.022;21.356;2023-02-21T06:02:49;99148.69;;;3.44;62.50
78309;BME280;67566;42.022;21.356;2023-02-21T06:05:18;99158.59;;;4.10;61.44
78309;BME280;67566;42.022;21.356;2023-02-21T06:07:44;99152.75;;;4.74;59.28
78309;BME280;67566;42.022;21.356;2023-02-21T06:10:10;99149.31;;;5.28;57.50
78309;BME280;67566;42.022;21.356;2023-02-21T06:12:36;99155.63;;;6.60;55.47
78309;BME280;67566;42.022;21.356;2023-02-21T06:15:01;99154.03;;;8.78;50.52
78309;BME280;67566;42.022;21.356;2023-02-21T06:17:32;99156.72;;;10.54;45.70
78309;BME280;67566;42.022;21.356;2023-02-21T06:19:57;99163.50;;;12.02;42.22
78309;BME280;67566;42.022;21.356;2023-02-21T06:22:23;99167.91;;;13.12;40.13
78309;BME280;67566;42.022;21.356;2023-02-21T06:24:48;99171.38;;;13.58;38.06
78309;BME280;67566;42.022;21.356;2023-02-21T06:27:13;99172.53;;;14.46;37.42
78309;BME280;67566;42.022;21.356;2023-02-21T06:29:40;99183.03;;;15.35;36.14
78309;BME280;67566;42.022;21.356;2023-02-21T06:32:05;99189.31;;;16.72;33.78
78309;BME280;67566;42.022;21.356;2023-02-21T06:34:31;99188.66;;;17.05;32.57
78309;BME280;67566;42.022;21.356;2023-02-21T06:36:57;99186.63;;;18.14;31.62
78309;BME280;67566;42.022;21.356;2023-02-21T06:39:23;99182.91;;;18.68;30.36
78309;BME280;67566;42.022;21.356;2023-02-21T06:41:49;99185.25;;;19.22;29.13
78309;BME280;67566;42.022;21.356;2023-02-21T06:44:15;99180.81;;;19.30;27.68
78309;BME280;67566;42.022;21.356;2023-02-21T06:46:41;99182.06;;;20.25;28.54
78309;BME280;67566;42.022;21.356;2023-02-21T06:49:07;99195.91;;;21.29;26.91
78309;BME280;67566;42.022;21.356;2023-02-21T06:51:37;99185.66;;;22.04;26.50
78309;BME280;67566;42.022;21.356;2023-02-21T06:54:03;99188.56;;;22.69;25.36
78309;BME280;67566;42.022;21.356;2023-02-21T06:56:29;99190.50;;;23.29;25.65
78309;BME280;67566;42.022;21.356;2023-02-21T06:58:55;99194.38;;;24.06;24.18
78309;BME280;67566;42.022;21.356;2023-02-21T07:01:20;99187.44;;;24.72;23.35
78309;BME280;67566;42.022;21.356;2023-02-21T07:03:48;99195.44;;;25.23;22.69
78309;BME280;67566;42.022;21.356;2023-02-21T07:06:13;99190.13;;;26.28;22.86
78309;BME280;67566;42.022;21.356;2023-02-21T07:08:40;99202.97;;;26.60;21.10
78309;BME280;67566;42.022;21.356;2023-02-21T07:11:06;99194.28;;;27.01;20.70
78309;BME280;67566;42.022;21.356;2023-02-21T07:13:32;99193.56;;;27.67;20.59
78309;BME280;67566;42.022;21.356;2023-02-21T07:15:59;99190.34;;;28.28;19.29
78309;BME280;67566;42.022;21.356;2023-02-21T07:18:24;99188.50;;;28.94;17.96
78309;BME280;67566;42.022;21.356;2023-02-21T07:20:50;99186.56;;;28.53;18.82
78309;BME280;67566;42.022;21.356;2023-02-21T07:23:15;99184.75;;;29.11;17.98
78309;BME280;67566;42.022;21.356;2023-02-21T07:25:41;99186.03;;;29.88;16.68
78309;BME280;67566;42.022;21.356;2023-02-21T07:28:06;99183.88;;;30.00;16.33
78309;BME280;67566;42.022;21.356;2023-02-21T07:30:32;99177.03;;;29.61;17.28
78309;BME280;67566;42.022;21.356;2023-02-21T07:32:58;99171.72;;;30.01;17.23
78309;BME280;67566;42.022;21.356;2023-02-21T07:35:24;99168.72;;;30.79;16.99
78309;BME280;67566;42.022;21.356;2023-02-21T07:37:50;99176.41;;;31.08;16.24
78309;BME280;67566;42.022;21.356;2023-02-21T07:40:15;99171.19;;;31.83;15.16
78309;BME280;67566;42.022;21.356;2023-02-21T07:42:42;99168.94;;;32.40;14.38
78309;BME280;67566;42.022;21.356;2023-02-21T07:45:13;99157.22;;;32.06;15.42
78309;BME280;67566;42.022;21.356;2023-02-21T07:47:38;99154.34;;;32.98;13.63
78309;BME280;67566;42.022;21.356;2023-02-21T07:50:04;99156.81;;;33.73;13.62
78309;BME280;67566;42.022;21.356;2023-02-21T07:52:30;99147.81;;;32.91;13.61
78309;BME280;67566;42.022;21.356;2023-02-21T07:54:55;99149.13;;;32.15;13.98
78309;BME280;67566;42.022;21.356;2023-02-21T07:57:21;99151.81;;;32.90;14.06
78309;BME280;67566;42.022;21.356;2023-02-21T07:59:46;99141.00;;;32.54;13.82
78309;BME280;67566;42.022;21.356;2023-02-21T08:02:12;99141.88;;;32.51;13.94
78309;BME280;67566;42.022;21.356;2023-02-21T08:04:38;99140.53;;;31.48;14.36
78309;BME280;67566;42.022;21.356;2023-02-21T08:07:04;99137.50;;;32.24;13.83
78309;BME280;67566;42.022;21.356;2023-02-21T08:09:30;99135.28;;;33.67;13.39
78309;BME280;67566;42.022;21.356;2023-02-21T08:11:56;99135.84;;;33.37;13.20
78309;BME280;67566;42.022;21.356;2023-02-21T08:14:21;99135.25;;;33.55;13.90
78309;BME280;67566;42.022;21.356;2023-02-21T08:16:47;99134.63;;;34.33;12.48
78309;BME280;67566;42.022;21.356;2023-02-21T08:19:12;99132.53;;;34.91;11.54
78309;BME280;67566;42.022;21.356;2023-02-21T08:21:38;99132.91;;;35.33;11.88
78309;BME280;67566;42.022;21.356;2023-02-21T08:24:03;99125.97;;;36.25;11.88
78309;BME280;67566;42.022;21.356;2023-02-21T08:26:29;99123.28;;;36.77;10.18
78309;BME280;67566;42.022;21.356;2023-02-21T08:28:54;99118.00;;;37.21;10.17
78309;BME280;67566;42.022;21.356;2023-02-21T08:31:20;99111.91;;;37.41;10.56
78309;BME280;67566;42.022;21.356;2023-02-21T08:33:46;99115.69;;;37.20;10.30
78309;BME280;67566;42.022;21.356;2023-02-21T08:36:11;99108.81;;;37.88;9.55
78309;BME280;67566;42.022;21.356;2023-02-21T08:38:37;99107.38;;;38.17;9.13
78309;BME280;67566;42.022;21.356;2023-02-21T08:41:04;99116.84;;;37.62;10.07
78309;BME280;67566;42.022;21.356;2023-02-21T08:43:30;99113.34;;;38.00;10.09
78309;BME280;67566;42.022;21.356;2023-02-21T08:45:56;99106.88;;;39.07;9.29
78309;BME280;67566;42.022;21.356;2023-02-21T08:48:22;99108.59;;;39.05;9.66
78309;BME280;67566;42.022;21.356;2023-02-21T08:50:48;99098.19;;;39.41;9.32
78309;BME280;67566;42.022;21.356;2023-02-21T08:53:14;99105.03;;;38.89;9.63
78309;BME280;67566;42.022;21.356;2023-02-21T08:55:39;99092.44;;;38.05;10.25
78309;BME280;67566;42.022;21.356;2023-02-21T08:58:05;99093.63;;;38.13;10.71
78309;BME280;67566;42.022;21.356;2023-02-21T09:00:30;99083.19;;;39.53;8.89
78309;BME280;67566;42.022;21.356;2023-02-21T09:02:56;99083.59;;;40.71;8.50
78309;BME280;67566;42.022;21.356;2023-02-21T09:05:27;99087.97;;;41.16;8.58
78309;BME280;67566;42.022;21.356;2023-02-21T09:07:53;99090.59;;;41.91;8.63
78309;BME280;67566;42.022;21.356;2023-02-21T09:10:24;99076.88;;;41.98;8.49
78309;BME280;67566;42.022;21.356;2023-02-21T09:12:49;99082.00;;;42.85;8.50
78309;BME280;67566;42.022;21.356;2023-02-21T09:15:15;99075.63;;;42.95;7.75
78309;BME280;67566;42.022;21.356;2023-02-21T09:17:41;99079.47;;;42.58;7.55
78309;BME280;67566;42.022;21.356;2023-02-21T09:20:07;99079.78;;;43.59;7.25
78309;BME280;67566;42.022;21.356;2023-02-21T09:22:34;99080.84;;;43.97;7.62
78309;BME280;67566;42.022;21.356;2023-02-21T09:25:00;99078.56;;;43.96;6.81
78309;BME280;67566;42.022;21.356;2023-02-21T09:27:26;99079.81;;;44.66;6.65
78309;BME280;67566;42.022;21.356;2023-02-21T09:30:13;99078.06;;;45.37;6.39
78309;BME280;67566;42.022;21.356;2023-02-21T09:32:39;99072.50;;;45.70;5.94
78309;BME280;67566;42.022;21.356;2023-02-21T09:35:05;99068.84;;;46.13;5.69
78309;BME280;67566;42.022;21.356;2023-02-21T09:37:30;99071.94;;;46.28;6.29
78309;BME280;67566;42.022;21.356;2023-02-21T09:39:57;99062.50;;;46.58;5.42
78309;BME280;67566;42.022;21.356;2023-02-21T09:42:27;99054.47;;;46.49;5.33
78309;BME280;67566;42.022;21.356;2023-02-21T09:44:53;99049.19;;;47.12;5.96
78309;BME280;67566;42.022;21.356;2023-02-21T09:47:32;99051.94;;;47.87;5.16
78309;BME280;67566;42.022;21.356;2023-02-21T09:50:04;99048.84;;;47.98;4.68
78309;BME280;67566;42.022;21.356;2023-02-21T09:52:34;99054.47;;;48.32;5.03
78309;BME280;67566;42.022;21.356;2023-02-21T09:55:10;99034.09;;;47.92;4.96
78309;BME280;67566;42.022;21.356;2023-02-21T09:57:38;99028.16;;;47.00;4.67
78309;BME280;67566;42.022;21.356;2023-02-21T10:05:46;99004.47;;;47.16;4.78
78309;BME280;67566;42.022;21.356;2023-02-21T10:13:59;98978.06;;;44.24;5.60
78309;BME280;67566;42.022;21.356;2023-02-21T10:16:32;98972.22;;;44.22;5.99
78309;BME280;67566;42.022;21.356;2023-02-21T10:19:02;98977.28;;;43.05;5.88
78309;BME280;67566;42.022;21.356;2023-02-21T10:21:38;98969.41;;;43.92;6.99
78309;BME280;67566;42.022;21.356;2023-02-21T10:24:23;98960.56;;;45.30;5.40
78309;BME280;67566;42.022;21.356;2023-02-21T10:29:25;98950.44;;;44.59;6.44
78309;BME280;67566;42.022;21.356;2023-02-21T10:31:55;98944.00;;;44.15;5.86
78309;BME280;67566;42.022;21.356;2023-02-21T10:34:26;98932.63;;;44.75;5.71
78309;BME280;67566;42.022;21.356;2023-02-21T10:36:54;98927.66;;;45.25;6.00
78309;BME280;67566;42.022;21.356;2023-02-21T10:39:43;98923.78;;;45.79;5.62
78309;BME280;67566;42.022;21.356;2023-02-21T10:42:25;98914.06;;;45.94;5.59
78309;BME280;67566;42.022;21.356;2023-02-21T10:44:53;98912.56;;;45.93;6.15
78309;BME280;67566;42.022;21.356;2023-02-21T10:47:31;98903.41;;;45.41;6.03
78309;BME280;67566;42.022;21.356;2023-02-21T10:50:04;98894.84;;;44.52;5.36
78309;BME280;67566;42.022;21.356;2023-02-21T10:52:48;98884.78;;;44.62;6.21
78309;BME280;67566;42.022;21.356;2023-02-21T10:55:17;98875.66;;;42.29;6.38
78309;BME280;67566;42.022;21.356;2023-02-21T10:57:46;98866.56;;;41.55;6.72
78309;BME280;67566;42.022;21.356;2023-02-21T11:02:54;98859.69;;;40.18;7.57
78309;BME280;67566;42.022;21.356;2023-02-21T11:05:21;98858.47;;;38.47;8.16
78309;BME280;67566;42.022;21.356;2023-02-21T11:08:07;98845.78;;;36.10;9.28
78309;BME280;67566;42.022;21.356;2023-02-21T11:10:38;98835.94;;;34.46;10.46
78309;BME280;67566;42.022;21.356;2023-02-21T11:13:15;98831.84;;;32.17;10.69
78309;BME280;67566;42.022;21.356;2023-02-21T11:15:44;98824.69;;;29.94;12.96
78309;BME280;67566;42.022;21.356;2023-02-21T11:18:16;98814.31;;;29.66;13.16
78309;BME280;67566;42.022;21.356;2023-02-21T11:20:43;98817.97;;;28.75;13.16
78309;BME280;67566;42.022;21.356;2023-02-21T11:25:44;98800.00;;;26.97;14.24
78309;BME280;67566;42.022;21.356;2023-02-21T11:30:37;98797.22;;;24.96;15.93
78309;BME280;67566;42.022;21.356;2023-02-21T11:33:04;98783.97;;;23.94;17.01
78309;BME280;67566;42.022;21.356;2023-02-21T11:35:34;98774.47;;;22.78;18.15
78309;BME280;67566;42.022;21.356;2023-02-21T11:38:06;98778.34;;;22.74;18.24
78309;BME280;67566;42.022;21.356;2023-02-21T11:49:04;98755.03;;;20.85;20.20
78309;BME280;67566;42.022;21.356;2023-02-21T11:54:05;98745.56;;;20.72;21.54
78309;BME280;67566;42.022;21.356;2023-02-21T11:56:51;98735.13;;;20.24;21.30
78309;BME280;67566;42.022;21.356;2023-02-21T11:59:28;98731.06;;;20.11;22.11
78309;BME280;67566;42.022;21.356;2023-02-21T12:13:03;98690.88;;;19.43;23.36
78309;BME280;67566;42.022;21.356;2023-02-21T12:23:55;98668.34;;;18.61;23.86
78309;BME280;67566;42.022;21.356;2023-02-21T12:33:02;98657.66;;;18.65;23.83
78309;BME280;67566;42.022;21.356;2023-02-21T12:38:24;98650.94;;;18.23;25.59
78309;BME280;67566;42.022;21.356;2023-02-21T12:44:11;98632.38;;;18.02;25.42
78309;BME280;67566;42.022;21.356;2023-02-21T12:46:57;98627.72;;;18.19;26.31
78309;BME280;67566;42.022;21.356;2023-02-21T12:52:11;98626.88;;;18.15;25.43
78309;BME280;67566;42.022;21.356;2023-02-21T12:54:44;98627.56;;;18.11;25.68
78309;BME280;67566;42.022;21.356;2023-02-21T12:57:17;98624.09;;;18.11;25.61
78309;BME280;67566;42.022;21.356;2023-02-21T13:05:36;98609.91;;;17.82;25.90
78309;BME280;67566;42.022;21.356;2023-02-21T13:08:13;98602.97;;;17.81;25.63
78309;BME280;67566;42.022;21.356;2023-02-21T13:10:57;98598.13;;;17.71;25.23
78309;BME280;67566;42.022;21.356;2023-02-21T13:13:29;98605.16;;;17.60;25.72
78309;BME280;67566;42.022;21.356;2023-02-21T13:16:04;98597.84;;;17.44;26.43
78309;BME280;67566;42.022;21.356;2023-02-21T13:18:34;98585.50;;;17.27;27.26
78309;BME280;67566;42.022;21.356;2023-02-21T13:23:58;98578.66;;;17.30;26.41
78309;BME280;67566;42.022;21.356;2023-02-21T13:28:54;98579.16;;;17.35;26.55
78309;BME280;67566;42.022;21.356;2023-02-21T13:31:26;98579.00;;;17.28;26.51
78309;BME280;67566;42.022;21.356;2023-02-21T13:33:55;98570.81;;;17.25;26.48
78309;BME280;67566;42.022;21.356;2023-02-21T13:36:28;98559.19;;;17.21;26.19
78309;BME280;67566;42.022;21.356;2023-02-21T13:39:09;98560.50;;;17.27;26.24
78309;BME280;67566;42.022;21.356;2023-02-21T13:42:03;98555.97;;;17.31;27.32
78309;BME280;67566;42.022;21.356;2023-02-21T13:47:07;98551.19;;;17.40;27.09
78309;BME280;67566;42.022;21.356;2023-02-21T13:57:51;98547.22;;;17.34;26.71
78309;BME280;67566;42.022;21.356;2023-02-21T14:10:48;98520.91;;;17.27;26.49
78309;BME280;67566;42.022;21.356;2023-02-21T14:15:56;98512.47;;;17.13;26.29
78309;BME280;67566;42.022;21.356;2023-02-21T14:18:29;98506.69;;;17.11;26.59
78309;BME280;67566;42.022;21.356;2023-02-21T14:20:56;98502.84;;;17.12;26.32
78309;BME280;67566;42.022;21.356;2023-02-21T14:23:30;98506.84;;;17.02;26.04
78309;BME280;67566;42.022;21.356;2023-02-21T14:25:59;98502.91;;;16.99;26.51
78309;BME280;67566;42.022;21.356;2023-02-21T14:28:48;98504.31;;;16.93;26.14
78309;BME280;67566;42.022;21.356;2023-02-21T14:31:51;98506.91;;;16.90;27.38
78309;BME280;67566;42.022;21.356;2023-02-21T14:39:47;98490.50;;;16.67;26.63
78309;BME280;67566;42.022;21.356;2023-02-21T14:45:22;98488.63;;;16.67;26.57
78309;BME280;67566;42.022;21.356;2023-02-21T14:51:18;98483.72;;;16.57;26.70
78309;BME280;67566;42.022;21.356;2023-02-21T14:54:31;98478.16;;;16.50;27.27
78309;BME280;67566;42.022;21.356;2023-02-21T15:03:26;98469.63;;;16.48;26.70
78309;BME280;67566;42.022;21.356;2023-02-21T15:06:02;98467.75;;;16.48;26.17
78309;BME280;67566;42.022;21.356;2023-02-21T15:08:45;98468.63;;;16.52;27.01
78309;BME280;67566;42.022;21.356;2023-02-21T15:11:32;98465.50;;;16.50;26.57
78309;BME280;67566;42.022;21.356;2023-02-21T15:14:15;98463.16;;;16.49;26.82
78309;BME280;67566;42.022;21.356;2023-02-21T15:24:31;98460.84;;;16.35;26.95
78309;BME280;67566;42.022;21.356;2023-02-21T15:27:10;98459.53;;;16.29;27.56
78309;BME280;67566;42.022;21.356;2023-02-21T15:29:36;98461.66;;;16.23;27.22
78309;BME280;67566;42.022;21.356;2023-02-21T15:32:02;98458.88;;;16.19;28.29
78309;BME280;67566;42.022;21.356;2023-02-21T15:34:33;98462.94;;;16.13;27.57
78309;BME280;67566;42.022;21.356;2023-02-21T15:39:38;98466.56;;;15.93;27.98
78309;BME280;67566;42.022;21.356;2023-02-21T15:42:07;98463.81;;;15.77;28.04
78309;BME280;67566;42.022;21.356;2023-02-21T15:44:40;98467.59;;;15.63;28.23
78309;BME280;67566;42.022;21.356;2023-02-21T15:52:06;98465.13;;;15.21;28.66
78309;BME280;67566;42.022;21.356;2023-02-21T15:54:34;98458.19;;;15.08;28.67
78309;BME280;67566;42.022;21.356;2023-02-21T15:59:36;98461.81;;;14.79;29.82
78309;BME280;67566;42.022;21.356;2023-02-21T16:04:40;98461.81;;;14.45;30.41
78309;BME280;67566;42.022;21.356;2023-02-21T16:07:14;98473.13;;;14.30;30.34
78309;BME280;67566;42.022;21.356;2023-02-21T16:09:45;98472.13;;;14.13;30.89
78309;BME280;67566;42.022;21.356;2023-02-21T16:14:43;98470.94;;;13.81;32.73
78309;BME280;67566;42.022;21.356;2023-02-21T16:17:19;98474.50;;;13.64;32.58